Time;durP1;ratioP1;P1;durP2;ratioP2;P2;SDS_P1;SDS_P2;PMS_P1;PMS_P2;Temp;Humidity;BMP_temperature;BMP_pressure;BME280_temperature;BME280_humidity;BME280_pressure;Samples;Min_cycle;Max_cycle;Signal;HPM_P1;HPM_P2
2023/02/03 00:01:18;;;;;;;15.73;12.93;;;;;;;;;;5033067;28;20174;-87
2023/02/03 00:03:44;;;;;;;17.53;12.93;;;;;;;;;;5022923;28;20597;-85
2023/02/03 00:06:10;;;;;;;14.90;12.57;;;;;;;;;;5030498;28;20243;-84
2023/02/03 00:08:38;;;;;;;18.77;13.57;;;;;;;;;;5023438;28;20190;-85
2023/02/03 00:11:04;;;;;;;14.43;12.93;;;;;;;;;;5035873;28;20205;-85
2023/02/03 00:13:30;;;;;;;14.17;12.40;;;;;;;;;;5030296;28;20282;-84
2023/02/03 00:15:56;;;;;;;15.30;12.73;;;;;;;;;;5023510;28;20549;-85
2023/02/03 00:18:22;;;;;;;15.47;12.80;;;;;;;;;;5023843;28;20562;-85
2023/02/03 00:20:48;;;;;;;14.10;12.60;;;;;;;;;;5039736;28;20182;-85
2023/02/03 00:23:14;;;;;;;17.87;11.93;;;;;;;;;;5022373;28;20190;-85
2023/02/03 00:25:40;;;;;;;15.53;12.77;;;;;;;;;;5024042;28;20186;-85
2023/02/03 00:28:06;;;;;;;14.97;12.57;;;;;;;;;;5018556;28;20188;-85
2023/02/03 00:30:36;;;;;;;13.77;12.17;;;;;;;;;;5038752;28;20186;-85
2023/02/03 00:33:02;;;;;;;16.00;13.00;;;;;;;;;;5028585;28;20185;-85
2023/02/03 00:35:28;;;;;;;13.37;11.97;;;;;;;;;;5050693;28;20260;-85
2023/02/03 00:37:55;;;;;;;14.70;12.07;;;;;;;;;;5029221;28;20664;-84
2023/02/03 00:40:22;;;;;;;14.03;12.57;;;;;;;;;;5045798;28;20618;-85
2023/02/03 00:42:48;;;;;;;15.83;12.90;;;;;;;;;;5039880;28;20179;-86
2023/02/03 00:45:15;;;;;;;12.90;11.40;;;;;;;;;;5025043;28;20205;-85
2023/02/03 00:47:41;;;;;;;14.27;11.00;;;;;;;;;;5037524;28;20175;-84
2023/02/03 00:50:07;;;;;;;15.23;11.73;;;;;;;;;;5028392;28;20198;-87
2023/02/03 00:52:33;;;;;;;14.73;11.07;;;;;;;;;;5021585;28;20232;-84
2023/02/03 00:54:59;;;;;;;13.60;10.57;;;;;;;;;;5018190;28;20242;-85
2023/02/03 00:57:25;;;;;;;13.03;10.40;;;;;;;;;;5040651;28;20220;-85
2023/02/03 00:59:51;;;;;;;12.40;10.37;;;;;;;;;;5028154;28;20319;-86
2023/02/03 01:02:17;;;;;;;11.90;10.70;;;;;;;;;;5020033;28;20193;-85
2023/02/03 01:04:44;;;;;;;14.30;10.47;;;;;;;;;;5042238;28;20178;-84
2023/02/03 01:07:10;;;;;;;15.90;10.77;;;;;;;;;;5022546;28;20679;-85
2023/02/03 01:09:36;;;;;;;16.10;11.47;;;;;;;;;;5038381;28;20615;-84
2023/02/03 01:12:03;;;;;;;12.67;11.33;;;;;;;;;;5035350;28;20251;-84
2023/02/03 01:14:29;;;;;;;14.50;11.67;;;;;;;;;;5029893;28;20228;-86
2023/02/03 01:16:55;;;;;;;14.70;11.53;;;;;;;;;;5026062;28;20273;-84
2023/02/03 01:19:21;;;;;;;14.30;10.23;;;;;;;;;;5041205;28;20534;-84
2023/02/03 01:21:47;;;;;;;17.70;11.77;;;;;;;;;;5030013;28;20265;-84
2023/02/03 01:24:16;;;;;;;11.33;10.20;;;;;;;;;;5020905;28;20915;-85
2023/02/03 01:26:43;;;;;;;13.83;10.60;;;;;;;;;;5038976;28;20185;-85
2023/02/03 01:29:09;;;;;;;14.27;10.93;;;;;;;;;;5036547;28;20186;-87
2023/02/03 01:31:38;;;;;;;13.07;10.80;;;;;;;;;;5026312;28;20273;-85
2023/02/03 01:34:04;;;;;;;13.17;9.87;;;;;;;;;;5021338;28;20934;-84
2023/02/03 01:36:31;;;;;;;11.40;8.83;;;;;;;;;;5029045;28;20572;-85
2023/02/03 01:38:57;;;;;;;11.17;9.30;;;;;;;;;;5043776;28;20668;-86
2023/02/03 01:41:25;;;;;;;11.00;9.83;;;;;;;;;;5034786;28;20178;-85
2023/02/03 01:43:52;;;;;;;12.20;10.17;;;;;;;;;;5024612;28;20540;-84
2023/02/03 01:46:33;;;;;;;11.73;9.27;;;;;;;;;;5025155;28;20184;-86
2023/02/03 01:49:14;;;;;;;10.07;9.00;;;;;;;;;;5025653;28;20185;-86
2023/02/03 01:51:41;;;;;;;13.23;9.43;;;;;;;;;;5028229;28;20458;-85
2023/02/03 01:54:13;;;;;;;11.17;8.97;;;;;;;;;;5032555;28;20210;-86
2023/02/03 01:56:42;;;;;;;10.93;8.70;;;;;;;;;;5021130;28;20253;-84
2023/02/03 01:59:08;;;;;;;13.70;9.20;;;;;;;;;;5033394;28;20669;-84
2023/02/03 02:01:36;;;;;;;10.33;8.67;;;;;;;;;;5036869;28;20610;-84
2023/02/03 02:04:03;;;;;;;12.60;8.93;;;;;;;;;;5025486;28;20178;-85
2023/02/03 02:06:29;;;;;;;9.70;8.70;;;;;;;;;;5027071;28;20269;-84
2023/02/03 02:08:56;;;;;;;14.93;8.73;;;;;;;;;;5045286;28;20661;-86
2023/02/03 02:11:23;;;;;;;11.17;9.07;;;;;;;;;;5033727;28;20673;-85
2023/02/03 02:13:50;;;;;;;9.63;8.00;;;;;;;;;;5039151;28;20194;-84
2023/02/03 02:16:22;;;;;;;10.87;7.43;;;;;;;;;;5034838;28;20189;-85
2023/02/03 02:19:07;;;;;;;10.27;8.63;;;;;;;;;;5036122;28;20365;-85
2023/02/03 02:21:52;;;;;;;12.43;9.30;;;;;;;;;;5041561;28;20959;-85
2023/02/03 02:24:37;;;;;;;10.03;8.60;;;;;;;;;;5040675;28;20174;-85
2023/02/03 02:27:09;;;;;;;8.93;8.03;;;;;;;;;;5041852;28;20540;-84
2023/02/03 02:29:45;;;;;;;11.60;7.97;;;;;;;;;;5041016;28;20205;-85
2023/02/03 02:32:18;;;;;;;10.10;8.63;;;;;;;;;;5019684;28;20216;-85
2023/02/03 02:34:51;;;;;;;9.93;8.93;;;;;;;;;;5027325;28;20181;-85
2023/02/03 02:37:22;;;;;;;12.33;8.37;;;;;;;;;;5026034;28;20678;-84
2023/02/03 02:39:55;;;;;;;11.93;8.53;;;;;;;;;;5023875;28;20580;-85
2023/02/03 02:42:26;;;;;;;9.90;8.07;;;;;;;;;;5041631;28;20233;-86
2023/02/03 02:44:55;;;;;;;9.83;7.30;;;;;;;;;;5027676;28;20617;-85
2023/02/03 02:47:23;;;;;;;8.50;7.23;;;;;;;;;;5044640;28;20239;-84
2023/02/03 02:50:00;;;;;;;10.50;7.17;;;;;;;;;;5028908;28;20181;-86
2023/02/03 02:52:29;;;;;;;7.57;6.70;;;;;;;;;;5038859;28;20278;-84
2023/02/03 02:54:57;;;;;;;8.67;6.73;;;;;;;;;;5037599;28;20344;-86
2023/02/03 02:57:25;;;;;;;12.03;7.37;;;;;;;;;;5020503;28;20178;-85
2023/02/03 02:59:51;;;;;;;8.90;7.40;;;;;;;;;;5031218;28;20174;-86
2023/02/03 03:02:17;;;;;;;9.97;6.90;;;;;;;;;;5035909;28;20674;-84
2023/02/03 03:04:46;;;;;;;9.83;6.60;;;;;;;;;;5042004;28;20633;-85
2023/02/03 03:07:17;;;;;;;11.30;7.57;;;;;;;;;;5023510;28;20182;-84
2023/02/03 03:09:45;;;;;;;8.70;7.43;;;;;;;;;;5022830;28;20174;-85
2023/02/03 03:12:11;;;;;;;11.93;7.93;;;;;;;;;;5039016;28;20664;-86
2023/02/03 03:14:40;;;;;;;9.70;7.20;;;;;;;;;;5042318;28;20170;-84
2023/02/03 03:17:08;;;;;;;10.60;7.27;;;;;;;;;;5023784;28;20181;-85
2023/02/03 03:19:35;;;;;;;8.60;7.43;;;;;;;;;;5041218;28;20174;-85
2023/02/03 03:22:03;;;;;;;11.73;8.10;;;;;;;;;;5025660;28;20185;-85
2023/02/03 03:24:31;;;;;;;7.93;6.97;;;;;;;;;;5041462;28;20826;-86
2023/02/03 03:27:13;;;;;;;11.43;6.30;;;;;;;;;;5040003;28;20621;-85
2023/02/03 03:29:39;;;;;;;6.50;5.80;;;;;;;;;;5046636;28;20216;-84
2023/02/03 03:32:06;;;;;;;7.47;6.50;;;;;;;;;;5023387;28;20209;-84
2023/02/03 03:34:32;;;;;;;10.83;6.83;;;;;;;;;;5027498;28;20657;-86
2023/02/03 03:37:11;;;;;;;11.57;7.20;;;;;;;;;;5035099;28;20180;-85
2023/02/03 03:39:54;;;;;;;8.13;6.90;;;;;;;;;;5041700;28;20269;-87
2023/02/03 03:42:25;;;;;;;9.90;7.77;;;;;;;;;;5038857;28;20193;-84
2023/02/03 03:44:54;;;;;;;11.27;8.17;;;;;;;;;;5038703;28;20649;-86
2023/02/03 03:47:27;;;;;;;14.93;7.70;;;;;;;;;;5024564;28;20181;-85
2023/02/03 03:49:54;;;;;;;10.23;7.03;;;;;;;;;;5037891;28;20376;-87
2023/02/03 03:52:22;;;;;;;8.03;7.20;;;;;;;;;;5038655;28;20237;-85
2023/02/03 03:54:49;;;;;;;11.90;7.30;;;;;;;;;;5039122;28;20309;-85
2023/02/03 03:57:18;;;;;;;10.70;7.27;;;;;;;;;;5043117;28;20182;-84
2023/02/03 03:59:46;;;;;;;11.20;6.93;;;;;;;;;;5026683;28;20590;-84
2023/02/03 04:02:13;;;;;;;10.30;7.47;;;;;;;;;;5022498;28;20521;-85
2023/02/03 04:04:39;;;;;;;9.43;6.80;;;;;;;;;;5025938;28;20261;-84
2023/02/03 04:07:05;;;;;;;9.77;6.97;;;;;;;;;;5037490;28;20190;-85
2023/02/03 04:09:35;;;;;;;9.13;6.50;;;;;;;;;;5028578;28;20621;-85
2023/02/03 04:12:01;;;;;;;11.03;6.30;;;;;;;;;;5027111;28;20265;-85
2023/02/03 04:14:31;;;;;;;10.27;7.60;;;;;;;;;;5022646;28;20181;-84
2023/02/03 04:16:58;;;;;;;8.93;8.23;;;;;;;;;;5021869;28;20589;-84
2023/02/03 04:19:24;;;;;;;11.27;6.17;;;;;;;;;;5027331;28;20201;-87
2023/02/03 04:21:50;;;;;;;8.57;5.53;;;;;;;;;;5026764;28;20183;-87
2023/02/03 04:24:16;;;;;;;9.03;6.00;;;;;;;;;;5028255;28;20638;-86
2023/02/03 04:26:43;;;;;;;10.47;5.93;;;;;;;;;;5018165;28;20186;-86
2023/02/03 04:29:09;;;;;;;9.30;7.23;;;;;;;;;;5023066;28;20256;-84
2023/02/03 04:31:35;;;;;;;10.60;7.23;;;;;;;;;;5024338;28;20204;-84
2023/02/03 04:34:01;;;;;;;6.33;5.70;;;;;;;;;;5038114;28;20181;-85
2023/02/03 04:36:27;;;;;;;6.53;5.73;;;;;;;;;;5035406;28;20252;-86
2023/02/03 04:38:53;;;;;;;8.60;5.80;;;;;;;;;;5031862;28;20273;-85
2023/02/03 04:41:19;;;;;;;7.00;5.83;;;;;;;;;;5029569;28;20240;-84
2023/02/03 04:43:45;;;;;;;7.13;5.27;;;;;;;;;;5028468;28;20700;-86
2023/02/03 04:46:11;;;;;;;8.43;6.20;;;;;;;;;;5033442;28;20643;-86
2023/02/03 04:48:37;;;;;;;7.73;5.63;;;;;;;;;;5019627;28;20243;-86
2023/02/03 04:51:04;;;;;;;6.93;5.07;;;;;;;;;;5036536;28;20206;-87
2023/02/03 04:53:30;;;;;;;9.57;5.23;;;;;;;;;;5046226;28;20364;-85
2023/02/03 04:55:57;;;;;;;7.00;4.90;;;;;;;;;;5022012;28;20222;-84
2023/02/03 04:58:23;;;;;;;6.47;5.00;;;;;;;;;;5026451;28;20650;-85
2023/02/03 05:00:49;;;;;;;6.73;5.53;;;;;;;;;;5021616;28;22182;-84
2023/02/03 05:03:15;;;;;;;7.07;5.20;;;;;;;;;;5036122;28;20208;-83
2023/02/03 05:05:41;;;;;;;10.00;6.00;;;;;;;;;;5033807;28;20181;-85
2023/02/03 05:08:07;;;;;;;5.93;5.00;;;;;;;;;;5035860;28;20733;-84
2023/02/03 05:10:33;;;;;;;6.43;4.23;;;;;;;;;;5011377;28;20266;-86
2023/02/03 05:12:59;;;;;;;9.63;5.47;;;;;;;;;;5026178;28;20217;-86
2023/02/03 05:15:25;;;;;;;6.70;4.90;;;;;;;;;;5024349;28;20181;-85
2023/02/03 05:17:52;;;;;;;11.60;5.00;;;;;;;;;;5039625;28;20211;-84
2023/02/03 05:20:18;;;;;;;7.43;4.77;;;;;;;;;;5039326;28;20190;-85
2023/02/03 05:22:44;;;;;;;8.80;5.40;;;;;;;;;;5015557;28;20465;-85
2023/02/03 05:25:10;;;;;;;6.73;5.53;;;;;;;;;;5029861;28;20198;-84
2023/02/03 05:27:38;;;;;;;7.20;4.47;;;;;;;;;;5030174;28;20293;-85
2023/02/03 05:30:05;;;;;;;7.77;4.40;;;;;;;;;;5036762;28;20273;-85
2023/02/03 05:32:31;;;;;;;8.27;4.77;;;;;;;;;;5025600;28;20676;-86
2023/02/03 05:34:57;;;;;;;6.20;4.63;;;;;;;;;;5020080;28;20727;-85
2023/02/03 05:37:23;;;;;;;8.37;4.20;;;;;;;;;;5023884;28;20622;-85
2023/02/03 05:39:49;;;;;;;5.80;4.30;;;;;;;;;;5026009;28;20285;-86
2023/02/03 05:42:15;;;;;;;5.30;3.97;;;;;;;;;;5027181;28;20190;-85
2023/02/03 05:44:41;;;;;;;5.43;3.83;;;;;;;;;;5027612;28;20502;-85
2023/02/03 05:47:07;;;;;;;7.50;4.30;;;;;;;;;;5024989;28;20185;-86
2023/02/03 05:49:33;;;;;;;10.50;3.87;;;;;;;;;;5024432;28;20305;-85
2023/02/03 05:51:59;;;;;;;7.47;3.80;;;;;;;;;;5041941;28;20211;-86
2023/02/03 05:54:25;;;;;;;6.07;3.53;;;;;;;;;;5029356;28;20284;-87
2023/02/03 05:56:51;;;;;;;6.23;3.37;;;;;;;;;;5045488;28;20282;-84
2023/02/03 05:59:17;;;;;;;3.80;3.20;;;;;;;;;;5041964;28;20585;-82
2023/02/03 06:01:43;;;;;;;5.13;3.50;;;;;;;;;;5028212;28;20182;-86
2023/02/03 06:04:10;;;;;;;8.10;4.13;;;;;;;;;;5029292;28;20561;-85
2023/02/03 06:06:36;;;;;;;8.03;4.07;;;;;;;;;;5027065;28;20594;-85
2023/02/03 06:09:03;;;;;;;4.53;3.60;;;;;;;;;;5039612;28;20189;-86
2023/02/03 06:11:30;;;;;;;6.23;3.87;;;;;;;;;;5040804;28;20289;-86
2023/02/03 06:14:00;;;;;;;6.67;3.53;;;;;;;;;;5028967;28;20181;-86
2023/02/03 06:16:26;;;;;;;5.10;3.87;;;;;;;;;;5040324;28;20246;-84
2023/02/03 06:18:53;;;;;;;6.70;3.50;;;;;;;;;;5039929;28;20187;-83
2023/02/03 06:21:20;;;;;;;6.80;3.50;;;;;;;;;;5044692;28;20613;-85
2023/02/03 06:23:46;;;;;;;7.83;3.17;;;;;;;;;;5046691;28;20865;-85
2023/02/03 06:26:12;;;;;;;6.27;2.80;;;;;;;;;;5026502;28;20545;-83
2023/02/03 06:28:38;;;;;;;6.40;3.50;;;;;;;;;;5045913;28;20594;-84
2023/02/03 06:31:05;;;;;;;5.67;2.93;;;;;;;;;;5027629;28;20783;-84
2023/02/03 06:33:31;;;;;;;6.10;2.77;;;;;;;;;;5027370;28;20233;-82
2023/02/03 06:35:57;;;;;;;4.93;3.10;;;;;;;;;;5032387;28;20178;-82
2023/02/03 06:38:23;;;;;;;5.60;3.10;;;;;;;;;;5039033;28;20169;-82
2023/02/03 06:40:50;;;;;;;4.97;3.10;;;;;;;;;;5028785;28;20256;-84
2023/02/03 06:43:16;;;;;;;6.27;2.87;;;;;;;;;;5039453;28;20175;-81
2023/02/03 06:45:44;;;;;;;6.83;2.67;;;;;;;;;;5043970;28;20265;-82
2023/02/03 06:48:11;;;;;;;3.77;2.70;;;;;;;;;;5021815;28;20324;-82
2023/02/03 06:50:37;;;;;;;5.00;2.93;;;;;;;;;;5045297;28;20178;-83
2023/02/03 06:53:03;;;;;;;6.90;3.57;;;;;;;;;;5027414;28;20263;-83
2023/02/03 06:55:29;;;;;;;5.03;3.00;;;;;;;;;;5040632;28;20226;-82
2023/02/03 06:57:55;;;;;;;5.57;2.90;;;;;;;;;;5028929;28;20178;-82
2023/02/03 07:00:21;;;;;;;6.93;3.83;;;;;;;;;;5028267;28;20424;-84
2023/02/03 07:02:53;;;;;;;7.07;3.13;;;;;;;;;;5016841;28;20186;-82
2023/02/03 07:05:19;;;;;;;4.27;2.70;;;;;;;;;;5022256;28;20646;-82
2023/02/03 07:07:45;;;;;;;9.93;3.80;;;;;;;;;;5026052;28;20248;-83
2023/02/03 07:10:11;;;;;;;8.97;3.27;;;;;;;;;;5023353;28;20186;-83
2023/02/03 07:12:37;;;;;;;5.17;2.80;;;;;;;;;;5019567;28;20217;-81
2023/02/03 07:15:03;;;;;;;6.20;2.83;;;;;;;;;;5035083;28;20262;-83
2023/02/03 07:17:30;;;;;;;4.53;2.93;;;;;;;;;;5023434;28;20182;-83
2023/02/03 07:19:56;;;;;;;4.13;2.70;;;;;;;;;;5019168;28;20189;-83
2023/02/03 07:22:22;;;;;;;4.37;2.83;;;;;;;;;;5039594;28;20684;-82
2023/02/03 07:24:48;;;;;;;8.57;3.07;;;;;;;;;;5020470;28;20539;-84
2023/02/03 07:27:14;;;;;;;4.07;2.90;;;;;;;;;;5023626;28;20183;-80
2023/02/03 07:29:40;;;;;;;4.63;3.20;;;;;;;;;;5037753;28;20179;-83
2023/02/03 07:32:06;;;;;;;3.87;3.03;;;;;;;;;;5029582;28;20271;-83
2023/02/03 07:34:32;;;;;;;5.57;3.10;;;;;;;;;;5042709;28;20224;-85
2023/02/03 07:36:58;;;;;;;5.33;2.57;;;;;;;;;;5030563;28;20174;-85
2023/02/03 07:39:24;;;;;;;7.93;2.90;;;;;;;;;;5028875;28;20186;-85
2023/02/03 07:41:50;;;;;;;5.10;2.87;;;;;;;;;;5028307;28;20377;-84
2023/02/03 07:44:16;;;;;;;7.27;3.67;;;;;;;;;;5026245;28;20181;-85
2023/02/03 07:46:44;;;;;;;5.70;2.80;;;;;;;;;;5022208;28;20620;-84
2023/02/03 07:49:11;;;;;;;4.03;2.73;;;;;;;;;;5027914;28;20690;-84
2023/02/03 07:51:37;;;;;;;3.73;2.97;;;;;;;;;;5024402;28;20224;-85
2023/02/03 07:54:03;;;;;;;5.13;3.20;;;;;;;;;;5018164;28;20256;-85
2023/02/03 07:56:31;;;;;;;5.73;3.17;;;;;;;;;;5016869;28;20284;-85
2023/02/03 07:58:57;;;;;;;3.67;2.57;;;;;;;;;;5025642;28;20658;-84
2023/02/03 08:01:23;;;;;;;4.03;2.80;;;;;;;;;;5029182;28;20603;-85
2023/02/03 08:03:49;;;;;;;3.80;3.30;;;;;;;;;;5028486;28;20203;-83
2023/02/03 08:06:16;;;;;;;9.00;3.03;;;;;;;;;;5025032;28;20182;-85
2023/02/03 08:08:42;;;;;;;4.07;2.57;;;;;;;;;;5030878;28;20254;-84
2023/02/03 08:11:08;;;;;;;5.07;3.10;;;;;;;;;;5031562;28;20288;-84
2023/02/03 08:13:34;;;;;;;4.37;3.00;;;;;;;;;;5043333;28;20294;-84
2023/02/03 08:16:00;;;;;;;4.87;3.17;;;;;;;;;;5044352;28;20192;-84
2023/02/03 08:18:26;;;;;;;6.23;3.20;;;;;;;;;;5029057;28;20174;-84
2023/02/03 08:20:53;;;;;;;5.67;3.33;;;;;;;;;;5027563;28;20169;-83
2023/02/03 08:23:19;;;;;;;6.77;3.63;;;;;;;;;;5022373;28;20223;-84
2023/02/03 08:25:45;;;;;;;5.53;3.00;;;;;;;;;;5038501;28;20173;-84
2023/02/03 08:28:11;;;;;;;5.77;3.13;;;;;;;;;;5026342;28;20185;-88
2023/02/03 08:30:37;;;;;;;6.40;3.63;;;;;;;;;;5037590;28;20209;-84
2023/02/03 08:33:04;;;;;;;6.23;3.70;;;;;;;;;;5029043;28;20256;-85
2023/02/03 08:35:30;;;;;;;4.67;3.10;;;;;;;;;;5042380;28;20216;-84
2023/02/03 08:37:56;;;;;;;4.63;3.70;;;;;;;;;;5024016;28;20189;-84
2023/02/03 08:40:22;;;;;;;5.40;3.20;;;;;;;;;;5024765;28;20617;-84
2023/02/03 08:42:48;;;;;;;8.43;4.27;;;;;;;;;;5029701;28;20178;-84
2023/02/03 08:45:14;;;;;;;5.70;3.73;;;;;;;;;;5031098;28;20178;-83
2023/02/03 08:47:40;;;;;;;4.97;3.50;;;;;;;;;;5027754;28;20184;-84
2023/02/03 08:50:07;;;;;;;4.97;3.07;;;;;;;;;;5043260;28;20175;-83
2023/02/03 08:52:33;;;;;;;6.33;3.53;;;;;;;;;;5036674;28;20206;-85
2023/02/03 08:54:59;;;;;;;6.10;3.80;;;;;;;;;;5043226;28;20269;-84
2023/02/03 08:57:25;;;;;;;4.53;3.40;;;;;;;;;;5035351;28;20638;-87
2023/02/03 08:59:51;;;;;;;6.77;3.20;;;;;;;;;;5039733;28;20266;-85
2023/02/03 09:02:19;;;;;;;4.37;3.07;;;;;;;;;;5037712;28;20637;-84
2023/02/03 09:04:46;;;;;;;5.43;3.73;;;;;;;;;;5035818;28;20205;-85
2023/02/03 09:07:12;;;;;;;6.07;3.87;;;;;;;;;;5030032;28;20181;-88
2023/02/03 09:09:38;;;;;;;4.27;3.50;;;;;;;;;;5017341;28;20676;-84
2023/02/03 09:12:10;;;;;;;6.73;4.10;;;;;;;;;;5028462;28;20193;-85
2023/02/03 09:14:36;;;;;;;4.30;3.63;;;;;;;;;;5033112;28;20200;-85
2023/02/03 09:17:03;;;;;;;4.93;3.87;;;;;;;;;;5032833;28;20170;-85
2023/02/03 09:19:29;;;;;;;4.13;3.60;;;;;;;;;;5031804;28;20189;-84
2023/02/03 09:21:58;;;;;;;5.20;4.00;;;;;;;;;;5048669;28;20178;-83
2023/02/03 09:24:24;;;;;;;5.93;3.67;;;;;;;;;;5042660;28;20663;-84
2023/02/03 09:26:51;;;;;;;6.07;3.70;;;;;;;;;;5045174;28;20174;-85
2023/02/03 09:29:17;;;;;;;5.57;4.27;;;;;;;;;;5026196;28;20170;-84
2023/02/03 09:31:45;;;;;;;6.87;4.33;;;;;;;;;;5035439;28;20197;-85
2023/02/03 09:34:11;;;;;;;5.17;4.23;;;;;;;;;;5036212;28;20166;-82
2023/02/03 09:36:37;;;;;;;6.40;4.60;;;;;;;;;;5037598;28;20268;-85
2023/02/03 09:39:04;;;;;;;6.13;4.10;;;;;;;;;;5035949;28;20181;-83
2023/02/03 09:41:41;;;;;;;6.97;3.97;;;;;;;;;;5035790;28;20370;-87
2023/02/03 09:44:17;;;;;;;5.67;4.63;;;;;;;;;;5034516;28;20177;-84
2023/02/03 09:46:49;;;;;;;5.33;4.40;;;;;;;;;;5034258;28;20173;-85
2023/02/03 09:49:21;;;;;;;6.33;4.63;;;;;;;;;;5030388;28;20178;-84
2023/02/03 09:51:50;;;;;;;7.17;4.17;;;;;;;;;;5047764;28;20733;-84
2023/02/03 09:54:18;;;;;;;5.83;4.20;;;;;;;;;;5028796;28;20267;-85
2023/02/03 09:56:51;;;;;;;7.03;4.00;;;;;;;;;;5032572;28;20703;-85
2023/02/03 09:59:17;;;;;;;8.33;5.20;;;;;;;;;;5034110;28;20181;-84
2023/02/03 10:01:55;;;;;;;6.97;5.33;;;;;;;;;;5038494;28;20177;-88
2023/02/03 10:04:38;;;;;;;6.03;4.90;;;;;;;;;;5030807;28;20584;-84
2023/02/03 10:07:04;;;;;;;7.27;4.97;;;;;;;;;;5049915;28;20196;-83
2023/02/03 10:09:41;;;;;;;6.57;5.60;;;;;;;;;;5033167;28;20182;-85
2023/02/03 10:12:26;;;;;;;5.60;4.73;;;;;;;;;;5052471;28;20205;-86
2023/02/03 10:15:04;;;;;;;6.63;5.10;;;;;;;;;;5033826;28;20285;-84
2023/02/03 10:17:36;;;;;;;7.50;5.73;;;;;;;;;;5033958;28;20178;-85
2023/02/03 10:20:08;;;;;;;6.13;5.27;;;;;;;;;;5036257;28;20182;-86
2023/02/03 10:22:54;;;;;;;5.93;5.03;;;;;;;;;;5034193;28;20234;-86
2023/02/03 10:25:24;;;;;;;6.97;5.33;;;;;;;;;;5043541;28;20190;-90
2023/02/03 10:27:52;;;;;;;6.03;4.90;;;;;;;;;;5050901;28;20342;-86
2023/02/03 10:30:24;;;;;;;6.20;5.10;;;;;;;;;;5055037;28;20581;-85
2023/02/03 10:32:57;;;;;;;6.40;4.73;;;;;;;;;;5032984;28;21233;-86
2023/02/03 10:35:28;;;;;;;8.23;5.33;;;;;;;;;;5028221;28;20182;-85
2023/02/03 10:37:56;;;;;;;6.53;5.07;;;;;;;;;;5034081;28;20178;-86
2023/02/03 10:40:24;;;;;;;5.87;5.27;;;;;;;;;;5035272;28;20177;-86
2023/02/03 10:45:38;;;;;;;6.77;4.67;;;;;;;;;;5034209;28;20242;-85
2023/02/03 10:48:08;;;;;;;8.53;5.20;;;;;;;;;;5048628;28;20270;-86
2023/02/03 10:50:35;;;;;;;5.90;4.90;;;;;;;;;;5032559;28;20190;-83
2023/02/03 10:53:20;;;;;;;10.00;5.13;;;;;;;;;;5050565;28;20205;-86
2023/02/03 10:55:48;;;;;;;9.33;6.17;;;;;;;;;;5031696;28;20295;-85
2023/02/03 10:58:16;;;;;;;8.17;5.23;;;;;;;;;;5035118;28;20178;-86
2023/02/03 11:00:42;;;;;;;5.17;4.67;;;;;;;;;;5032331;28;20220;-87
2023/02/03 11:03:28;;;;;;;5.60;4.90;;;;;;;;;;5035357;28;20177;-87
2023/02/03 11:06:14;;;;;;;5.27;4.57;;;;;;;;;;5048325;28;20197;-86
2023/02/03 11:08:45;;;;;;;7.73;5.07;;;;;;;;;;5048753;28;20209;-85
2023/02/03 11:11:26;;;;;;;8.17;4.90;;;;;;;;;;5038946;28;20564;-86
2023/02/03 11:13:53;;;;;;;8.07;4.43;;;;;;;;;;5033827;28;20181;-85
2023/02/03 11:16:19;;;;;;;6.40;4.40;;;;;;;;;;5035852;28;20186;-88
2023/02/03 11:18:53;;;;;;;4.27;3.87;;;;;;;;;;5034543;28;20193;-85
2023/02/03 11:21:25;;;;;;;6.67;4.20;;;;;;;;;;5046682;28;20294;-86
2023/02/03 11:23:51;;;;;;;7.57;4.27;;;;;;;;;;5033507;28;20173;-86
2023/02/03 11:26:22;;;;;;;5.37;4.60;;;;;;;;;;5051538;28;20188;-86
2023/02/03 11:28:49;;;;;;;6.83;4.07;;;;;;;;;;5033161;28;20182;-86
2023/02/03 11:31:24;;;;;;;7.60;4.13;;;;;;;;;;5033056;28;20219;-87
2023/02/03 11:33:58;;;;;;;6.53;3.57;;;;;;;;;;5033882;28;20680;-86
2023/02/03 11:36:28;;;;;;;6.53;4.03;;;;;;;;;;5033188;28;20177;-86
2023/02/03 11:39:08;;;;;;;5.23;3.87;;;;;;;;;;5033731;28;20185;-88
2023/02/03 11:41:36;;;;;;;5.67;3.70;;;;;;;;;;5033106;28;20185;-87
2023/02/03 11:44:10;;;;;;;4.93;3.83;;;;;;;;;;5032382;28;20245;-85
2023/02/03 11:46:37;;;;;;;6.67;3.70;;;;;;;;;;5032880;28;20671;-84
2023/02/03 11:49:08;;;;;;;6.07;4.07;;;;;;;;;;5032930;28;20680;-85
2023/02/03 11:51:34;;;;;;;8.20;4.10;;;;;;;;;;5032308;28;20236;-86
2023/02/03 11:54:24;;;;;;;10.07;4.07;;;;;;;;;;5031183;28;20201;-85
2023/02/03 11:57:04;;;;;;;4.87;3.60;;;;;;;;;;5031097;28;20202;-85
2023/02/03 11:59:30;;;;;;;4.47;3.80;;;;;;;;;;5048477;28;20182;-84
2023/02/03 12:02:22;;;;;;;9.07;3.90;;;;;;;;;;5030674;28;20182;-85
2023/02/03 12:04:55;;;;;;;8.93;4.17;;;;;;;;;;5040665;28;20196;-87
2023/02/03 12:07:24;;;;;;;6.83;3.80;;;;;;;;;;5028607;28;20229;-85
2023/02/03 12:09:59;;;;;;;4.37;3.23;;;;;;;;;;5030568;28;20183;-84
2023/02/03 12:12:29;;;;;;;8.33;4.17;;;;;;;;;;5048075;28;20618;-86
2023/02/03 12:14:55;;;;;;;5.73;3.93;;;;;;;;;;5031178;28;20175;-86
2023/02/03 12:17:30;;;;;;;8.20;3.80;;;;;;;;;;5048089;28;20197;-86
2023/02/03 12:19:56;;;;;;;9.90;3.53;;;;;;;;;;5029167;28;20192;-85
2023/02/03 12:22:43;;;;;;;5.93;3.40;;;;;;;;;;5032286;28;20282;-86
2023/02/03 12:25:28;;;;;;;7.47;4.00;;;;;;;;;;5044624;28;20193;-87
2023/02/03 12:28:13;;;;;;;4.83;3.80;;;;;;;;;;5044209;28;20279;-86
2023/02/03 12:30:43;;;;;;;8.23;4.57;;;;;;;;;;5035540;28;20213;-87
2023/02/03 12:33:20;;;;;;;5.50;4.17;;;;;;;;;;5032979;28;20251;-86
2023/02/03 12:35:52;;;;;;;6.57;3.87;;;;;;;;;;5037763;28;20272;-85
2023/02/03 12:38:27;;;;;;;8.80;4.47;;;;;;;;;;5032267;28;20178;-85
2023/02/03 12:41:00;;;;;;;5.40;3.90;;;;;;;;;;5032896;28;20240;-86
2023/02/03 12:43:36;;;;;;;7.93;4.57;;;;;;;;;;5033909;28;20277;-87
2023/02/03 12:46:12;;;;;;;8.10;4.20;;;;;;;;;;5032267;28;20580;-86
2023/02/03 12:48:38;;;;;;;5.67;4.10;;;;;;;;;;5027895;28;20212;-87
2023/02/03 12:51:08;;;;;;;6.07;3.80;;;;;;;;;;5031277;28;20177;-85
2023/02/03 12:53:36;;;;;;;8.23;5.30;;;;;;;;;;5033164;28;20617;-85
2023/02/03 12:56:11;;;;;;;9.37;4.70;;;;;;;;;;5046815;28;20229;-83
2023/02/03 12:58:44;;;;;;;7.53;4.27;;;;;;;;;;5041870;28;20264;-85
2023/02/03 13:01:14;;;;;;;10.27;5.23;;;;;;;;;;5042736;28;20247;-85
2023/02/03 13:03:59;;;;;;;11.07;5.60;;;;;;;;;;5021730;28;20285;-86
2023/02/03 13:06:44;;;;;;;9.87;4.47;;;;;;;;;;5040456;28;20184;-86
2023/02/03 13:09:28;;;;;;;8.10;5.23;;;;;;;;;;5047282;28;20404;-87
2023/02/03 13:12:00;;;;;;;10.17;4.90;;;;;;;;;;5055785;28;20193;-85
2023/02/03 13:14:26;;;;;;;6.10;4.57;;;;;;;;;;5034063;28;20268;-85
2023/02/03 13:17:00;;;;;;;9.90;4.70;;;;;;;;;;5032651;28;20178;-85
2023/02/03 13:19:28;;;;;;;6.60;4.80;;;;;;;;;;5029327;28;20174;-87
2023/02/03 13:21:54;;;;;;;8.13;4.57;;;;;;;;;;5033185;28;20493;-86
2023/02/03 13:24:23;;;;;;;9.07;4.57;;;;;;;;;;5030787;28;20228;-86
2023/02/03 13:27:22;;;;;;;8.77;5.10;;;;;;;;;;5030699;28;20185;-83
2023/02/03 13:29:54;;;;;;;8.43;3.97;;;;;;;;;;4997546;28;20359;-84
2023/02/03 13:32:29;;;;;;;7.60;4.93;;;;;;;;;;5033060;28;20205;-84
2023/02/03 13:35:21;;;;;;;5.73;4.33;;;;;;;;;;5022997;28;20206;-87
2023/02/03 13:38:05;;;;;;;7.50;4.50;;;;;;;;;;5027028;28;20589;-83
2023/02/03 13:40:40;;;;;;;8.87;4.30;;;;;;;;;;5041992;28;20660;-86
2023/02/03 13:43:11;;;;;;;8.13;4.33;;;;;;;;;;5029441;28;20203;-85
2023/02/03 13:45:39;;;;;;;8.20;4.27;;;;;;;;;;5040361;28;20201;-83
2023/02/03 13:48:08;;;;;;;6.70;4.47;;;;;;;;;;5030721;28;20259;-84
2023/02/03 13:50:36;;;;;;;7.63;4.83;;;;;;;;;;5032132;28;20178;-85
2023/02/03 13:53:06;;;;;;;6.23;3.90;;;;;;;;;;5027029;28;20212;-86
2023/02/03 13:55:37;;;;;;;7.10;3.60;;;;;;;;;;5028277;28;20205;-86
2023/02/03 13:58:04;;;;;;;7.93;3.73;;;;;;;;;;5028829;28;20256;-83
2023/02/03 14:00:43;;;;;;;7.50;4.10;;;;;;;;;;5025019;28;20216;-83
2023/02/03 14:03:15;;;;;;;5.53;3.83;;;;;;;;;;5043258;28;20276;-84
2023/02/03 14:06:02;;;;;;;5.63;3.50;;;;;;;;;;5030453;28;20634;-86
2023/02/03 14:08:28;;;;;;;7.70;4.73;;;;;;;;;;5031593;28;20189;-85
2023/02/03 14:11:13;;;;;;;8.53;4.27;;;;;;;;;;5046676;28;20178;-85
2023/02/03 14:13:39;;;;;;;5.50;3.87;;;;;;;;;;5039497;28;20181;-84
2023/02/03 14:16:23;;;;;;;6.63;4.17;;;;;;;;;;5029369;28;20285;-86
2023/02/03 14:18:49;;;;;;;4.80;3.57;;;;;;;;;;5032512;28;20233;-86
2023/02/03 14:21:24;;;;;;;3.87;3.43;;;;;;;;;;5035022;28;20178;-85
2023/02/03 14:24:03;;;;;;;6.73;4.10;;;;;;;;;;5053525;28;20716;-85
2023/02/03 14:26:40;;;;;;;7.93;4.23;;;;;;;;;;5043036;28;20189;-87
2023/02/03 14:29:07;;;;;;;7.80;4.00;;;;;;;;;;5048221;28;20178;-85
2023/02/03 14:31:51;;;;;;;6.90;4.20;;;;;;;;;;5033359;28;20263;-85
2023/02/03 14:34:18;;;;;;;4.93;3.73;;;;;;;;;;5035553;28;20200;-86
2023/02/03 14:36:47;;;;;;;5.70;4.30;;;;;;;;;;5026354;28;20204;-87
2023/02/03 14:39:19;;;;;;;8.63;4.20;;;;;;;;;;5046911;28;20206;-84
2023/02/03 14:42:08;;;;;;;7.07;3.97;;;;;;;;;;5028390;28;20680;-83
2023/02/03 14:44:50;;;;;;;6.90;3.60;;;;;;;;;;5027670;28;20192;-84
2023/02/03 14:47:32;;;;;;;7.37;3.50;;;;;;;;;;5031615;28;20684;-83
2023/02/03 14:50:21;;;;;;;6.47;3.70;;;;;;;;;;5045518;28;20173;-81
2023/02/03 14:53:00;;;;;;;5.63;3.33;;;;;;;;;;5043163;28;20300;-86
2023/02/03 14:55:48;;;;;;;6.20;2.93;;;;;;;;;;5040658;28;20672;-83